sensor_id;sensor_type;location;lat;lon;timestamp;temperature;humidity
67529;DHT22;54366;51.980;5.856;2022-12-29T00:00:03;11.50;88.70
67529;DHT22;54366;51.980;5.856;2022-12-29T00:02:38;11.50;88.10
67529;DHT22;54366;51.980;5.856;2022-12-29T00:05:05;11.50;88.10
67529;DHT22;54366;51.980;5.856;2022-12-29T00:07:32;11.50;88.10
67529;DHT22;54366;51.980;5.856;2022-12-29T00:09:58;11.50;88.10
67529;DHT22;54366;51.980;5.856;2022-12-29T00:12:24;11.50;88.00
67529;DHT22;54366;51.980;5.856;2022-12-29T00:14:51;11.50;87.90
67529;DHT22;54366;51.980;5.856;2022-12-29T00:17:35;11.50;87.80
67529;DHT22;54366;51.980;5.856;2022-12-29T00:20:01;11.50;87.70
67529;DHT22;54366;51.980;5.856;2022-12-29T00:22:46;11.50;87.60
67529;DHT22;54366;51.980;5.856;2022-12-29T00:25:31;11.50;87.60
67529;DHT22;54366;51.980;5.856;2022-12-29T00:28:16;11.50;87.70
67529;DHT22;54366;51.980;5.856;2022-12-29T00:31:01;11.50;87.60
67529;DHT22;54366;51.980;5.856;2022-12-29T00:33:46;11.50;87.60
67529;DHT22;54366;51.980;5.856;2022-12-29T00:36:45;11.50;87.60
67529;DHT22;54366;51.980;5.856;2022-12-29T00:39:16;11.60;87.70
67529;DHT22;54366;51.980;5.856;2022-12-29T00:42:06;11.50;87.60
67529;DHT22;54366;51.980;5.856;2022-12-29T00:44:51;11.50;87.60
67529;DHT22;54366;51.980;5.856;2022-12-29T00:47:17;11.60;87.60
67529;DHT22;54366;51.980;5.856;2022-12-29T00:49:44;11.50;87.60
67529;DHT22;54366;51.980;5.856;2022-12-29T00:52:12;11.50;87.60
67529;DHT22;54366;51.980;5.856;2022-12-29T00:54:40;11.60;87.60
67529;DHT22;54366;51.980;5.856;2022-12-29T00:57:08;11.60;87.60
67529;DHT22;54366;51.980;5.856;2022-12-29T00:59:39;11.60;87.60
67529;DHT22;54366;51.980;5.856;2022-12-29T01:02:06;11.60;87.70
67529;DHT22;54366;51.980;5.856;2022-12-29T01:04:33;11.50;87.50
67529;DHT22;54366;51.980;5.856;2022-12-29T01:06:59;11.50;87.60
67529;DHT22;54366;51.980;5.856;2022-12-29T01:09:25;11.60;87.70
67529;DHT22;54366;51.980;5.856;2022-12-29T01:12:15;11.50;87.50
67529;DHT22;54366;51.980;5.856;2022-12-29T01:17:07;11.60;87.40
67529;DHT22;54366;51.980;5.856;2022-12-29T01:19:34;11.60;87.10
67529;DHT22;54366;51.980;5.856;2022-12-29T01:22:00;11.50;87.10
67529;DHT22;54366;51.980;5.856;2022-12-29T01:24:27;11.60;87.10
67529;DHT22;54366;51.980;5.856;2022-12-29T01:26:54;11.60;87.00
67529;DHT22;54366;51.980;5.856;2022-12-29T01:29:20;11.60;86.90
67529;DHT22;54366;51.980;5.856;2022-12-29T01:31:46;11.60;87.00
67529;DHT22;54366;51.980;5.856;2022-12-29T01:34:13;11.50;87.00
67529;DHT22;54366;51.980;5.856;2022-12-29T01:36:39;11.50;87.20
67529;DHT22;54366;51.980;5.856;2022-12-29T01:39:05;11.60;87.40
67529;DHT22;54366;51.980;5.856;2022-12-29T01:41:32;11.50;87.30
67529;DHT22;54366;51.980;5.856;2022-12-29T01:44:01;11.60;87.40
67529;DHT22;54366;51.980;5.856;2022-12-29T01:46:39;11.50;87.40
67529;DHT22;54366;51.980;5.856;2022-12-29T01:49:24;11.50;87.40
67529;DHT22;54366;51.980;5.856;2022-12-29T01:52:02;11.50;87.50
67529;DHT22;54366;51.980;5.856;2022-12-29T01:54:35;11.50;87.60
67529;DHT22;54366;51.980;5.856;2022-12-29T01:57:07;11.40;87.70
67529;DHT22;54366;51.980;5.856;2022-12-29T01:59:41;11.40;87.80
67529;DHT22;54366;51.980;5.856;2022-12-29T02:02:10;11.50;87.90
67529;DHT22;54366;51.980;5.856;2022-12-29T02:04:41;11.50;88.00
67529;DHT22;54366;51.980;5.856;2022-12-29T02:07:17;11.50;88.00
67529;DHT22;54366;51.980;5.856;2022-12-29T02:09:47;11.50;88.00
67529;DHT22;54366;51.980;5.856;2022-12-29T02:12:17;11.50;88.10
67529;DHT22;54366;51.980;5.856;2022-12-29T02:14:44;11.50;88.10
67529;DHT22;54366;51.980;5.856;2022-12-29T02:18:03;11.50;88.10
67529;DHT22;54366;51.980;5.856;2022-12-29T02:27:43;11.60;88.00
67529;DHT22;54366;51.980;5.856;2022-12-29T02:30:47;11.60;88.00
67529;DHT22;54366;51.980;5.856;2022-12-29T02:36:29;11.60;88.10
67529;DHT22;54366;51.980;5.856;2022-12-29T02:39:12;11.60;88.20
67529;DHT22;54366;51.980;5.856;2022-12-29T02:45:22;11.60;88.30
67529;DHT22;54366;51.980;5.856;2022-12-29T02:48:18;11.60;88.40
67529;DHT22;54366;51.980;5.856;2022-12-29T02:50:49;11.60;88.40
67529;DHT22;54366;51.980;5.856;2022-12-29T02:53:18;11.60;88.30
67529;DHT22;54366;51.980;5.856;2022-12-29T02:56:05;11.60;88.20
67529;DHT22;54366;51.980;5.856;2022-12-29T02:58:32;11.60;88.10
67529;DHT22;54366;51.980;5.856;2022-12-29T03:04:44;11.60;87.70
67529;DHT22;54366;51.980;5.856;2022-12-29T03:13:08;11.70;86.80
67529;DHT22;54366;51.980;5.856;2022-12-29T03:16:14;11.70;86.50
67529;DHT22;54366;51.980;5.856;2022-12-29T03:18:58;11.80;86.10
67529;DHT22;54366;51.980;5.856;2022-12-29T03:21:44;11.80;86.30
67529;DHT22;54366;51.980;5.856;2022-12-29T03:24:41;11.70;86.60
67529;DHT22;54366;51.980;5.856;2022-12-29T03:27:12;11.70;87.50
67529;DHT22;54366;51.980;5.856;2022-12-29T03:29:45;11.70;87.00
67529;DHT22;54366;51.980;5.856;2022-12-29T03:32:15;11.70;86.70
67529;DHT22;54366;51.980;5.856;2022-12-29T03:34:42;11.60;86.50
67529;DHT22;54366;51.980;5.856;2022-12-29T03:37:15;11.60;86.80
67529;DHT22;54366;51.980;5.856;2022-12-29T03:39:43;11.60;86.90
67529;DHT22;54366;51.980;5.856;2022-12-29T03:42:13;11.60;86.60
67529;DHT22;54366;51.980;5.856;2022-12-29T03:44:43;11.60;86.60
67529;DHT22;54366;51.980;5.856;2022-12-29T03:47:13;11.60;86.70
67529;DHT22;54366;51.980;5.856;2022-12-29T03:49:40;11.60;86.80
67529;DHT22;54366;51.980;5.856;2022-12-29T03:52:13;11.60;86.90
67529;DHT22;54366;51.980;5.856;2022-12-29T03:54:43;11.60;86.90
67529;DHT22;54366;51.980;5.856;2022-12-29T03:57:10;11.70;86.90
67529;DHT22;54366;51.980;5.856;2022-12-29T03:59:53;11.60;86.70
67529;DHT22;54366;51.980;5.856;2022-12-29T04:02:20;11.60;86.50
67529;DHT22;54366;51.980;5.856;2022-12-29T04:04:46;11.60;86.40
67529;DHT22;54366;51.980;5.856;2022-12-29T04:07:13;11.60;86.40
67529;DHT22;54366;51.980;5.856;2022-12-29T04:09:40;11.60;86.00
67529;DHT22;54366;51.980;5.856;2022-12-29T04:12:09;11.60;86.00
67529;DHT22;54366;51.980;5.856;2022-12-29T04:14:36;11.70;86.10
67529;DHT22;54366;51.980;5.856;2022-12-29T04:17:02;11.60;85.70
67529;DHT22;54366;51.980;5.856;2022-12-29T04:19:29;11.70;85.90
67529;DHT22;54366;51.980;5.856;2022-12-29T04:21:56;11.70;85.80
67529;DHT22;54366;51.980;5.856;2022-12-29T04:24:23;11.70;85.60
67529;DHT22;54366;51.980;5.856;2022-12-29T04:26:50;11.70;85.60
67529;DHT22;54366;51.980;5.856;2022-12-29T04:29:34;11.70;85.50
67529;DHT22;54366;51.980;5.856;2022-12-29T04:32:10;11.60;85.30
67529;DHT22;54366;51.980;5.856;2022-12-29T04:34:43;11.60;85.20
67529;DHT22;54366;51.980;5.856;2022-12-29T04:37:09;11.70;84.50
67529;DHT22;54366;51.980;5.856;2022-12-29T04:39:36;11.60;84.70
67529;DHT22;54366;51.980;5.856;2022-12-29T04:42:03;11.60;84.80
67529;DHT22;54366;51.980;5.856;2022-12-29T04:44:30;11.60;84.90
67529;DHT22;54366;51.980;5.856;2022-12-29T04:47:08;11.60;85.10
67529;DHT22;54366;51.980;5.856;2022-12-29T04:50:10;11.60;85.20
67529;DHT22;54366;51.980;5.856;2022-12-29T04:52:50;11.60;84.60
67529;DHT22;54366;51.980;5.856;2022-12-29T04:55:17;11.60;84.60
67529;DHT22;54366;51.980;5.856;2022-12-29T04:57:43;11.60;84.70
67529;DHT22;54366;51.980;5.856;2022-12-29T05:00:14;11.60;84.50
67529;DHT22;54366;51.980;5.856;2022-12-29T05:02:41;11.60;84.40
67529;DHT22;54366;51.980;5.856;2022-12-29T05:05:08;11.60;84.00
67529;DHT22;54366;51.980;5.856;2022-12-29T05:07:38;11.60;83.40
67529;DHT22;54366;51.980;5.856;2022-12-29T05:10:06;11.50;83.30
67529;DHT22;54366;51.980;5.856;2022-12-29T05:12:34;11.50;82.70
67529;DHT22;54366;51.980;5.856;2022-12-29T05:15:02;11.50;82.60
67529;DHT22;54366;51.980;5.856;2022-12-29T05:17:29;11.50;82.30
67529;DHT22;54366;51.980;5.856;2022-12-29T05:19:55;11.50;81.70
67529;DHT22;54366;51.980;5.856;2022-12-29T05:22:22;11.50;81.40
67529;DHT22;54366;51.980;5.856;2022-12-29T05:24:49;11.50;81.60
67529;DHT22;54366;51.980;5.856;2022-12-29T05:27:15;11.40;81.40
67529;DHT22;54366;51.980;5.856;2022-12-29T05:30:12;11.50;81.70
67529;DHT22;54366;51.980;5.856;2022-12-29T05:32:38;11.50;82.00
67529;DHT22;54366;51.980;5.856;2022-12-29T05:35:05;11.40;82.40
67529;DHT22;54366;51.980;5.856;2022-12-29T05:37:33;11.40;82.80
67529;DHT22;54366;51.980;5.856;2022-12-29T05:40:00;11.30;83.10
67529;DHT22;54366;51.980;5.856;2022-12-29T05:42:27;11.30;83.30
67529;DHT22;54366;51.980;5.856;2022-12-29T05:45:12;11.30;83.50
67529;DHT22;54366;51.980;5.856;2022-12-29T05:47:54;11.30;83.60
67529;DHT22;54366;51.980;5.856;2022-12-29T05:50:50;11.20;83.70
67529;DHT22;54366;51.980;5.856;2022-12-29T05:53:32;11.20;83.60
67529;DHT22;54366;51.980;5.856;2022-12-29T05:55:58;11.10;83.50
67529;DHT22;54366;51.980;5.856;2022-12-29T05:58:25;11.10;83.80
67529;DHT22;54366;51.980;5.856;2022-12-29T06:00:51;11.00;83.70
67529;DHT22;54366;51.980;5.856;2022-12-29T06:03:19;11.00;83.80
67529;DHT22;54366;51.980;5.856;2022-12-29T06:05:46;11.00;83.20
67529;DHT22;54366;51.980;5.856;2022-12-29T06:08:14;11.00;83.40
67529;DHT22;54366;51.980;5.856;2022-12-29T06:10:40;10.90;83.40
67529;DHT22;54366;51.980;5.856;2022-12-29T06:13:08;10.90;83.40
67529;DHT22;54366;51.980;5.856;2022-12-29T06:15:37;10.90;83.40
67529;DHT22;54366;51.980;5.856;2022-12-29T06:18:06;10.90;83.40
67529;DHT22;54366;51.980;5.856;2022-12-29T06:20:33;10.90;83.30
67529;DHT22;54366;51.980;5.856;2022-12-29T06:23:02;10.90;83.10
67529;DHT22;54366;51.980;5.856;2022-12-29T06:25:29;10.90;82.70
67529;DHT22;54366;51.980;5.856;2022-12-29T06:27:58;10.90;82.40
67529;DHT22;54366;51.980;5.856;2022-12-29T06:30:24;10.90;82.20
67529;DHT22;54366;51.980;5.856;2022-12-29T06:32:51;10.80;82.20
67529;DHT22;54366;51.980;5.856;2022-12-29T06:35:19;10.90;82.10
67529;DHT22;54366;51.980;5.856;2022-12-29T06:37:49;10.80;82.10
67529;DHT22;54366;51.980;5.856;2022-12-29T06:40:15;10.80;81.90
67529;DHT22;54366;51.980;5.856;2022-12-29T06:43:14;10.80;82.00
67529;DHT22;54366;51.980;5.856;2022-12-29T06:46:03;10.80;81.90
67529;DHT22;54366;51.980;5.856;2022-12-29T06:48:30;10.80;81.70
67529;DHT22;54366;51.980;5.856;2022-12-29T06:50:56;10.80;81.50
67529;DHT22;54366;51.980;5.856;2022-12-29T06:53:22;10.80;81.60
67529;DHT22;54366;51.980;5.856;2022-12-29T06:55:49;10.80;81.70
67529;DHT22;54366;51.980;5.856;2022-12-29T06:58:15;10.90;81.60
67529;DHT22;54366;51.980;5.856;2022-12-29T07:00:41;10.80;81.60
67529;DHT22;54366;51.980;5.856;2022-12-29T07:03:07;10.90;81.60
67529;DHT22;54366;51.980;5.856;2022-12-29T07:05:34;10.90;81.30
67529;DHT22;54366;51.980;5.856;2022-12-29T07:08:00;10.90;81.00
67529;DHT22;54366;51.980;5.856;2022-12-29T07:10:27;10.90;81.10
67529;DHT22;54366;51.980;5.856;2022-12-29T07:12:53;10.90;80.70
67529;DHT22;54366;51.980;5.856;2022-12-29T07:15:20;10.90;80.70
67529;DHT22;54366;51.980;5.856;2022-12-29T07:17:46;10.90;80.50
67529;DHT22;54366;51.980;5.856;2022-12-29T07:20:12;10.90;79.60
67529;DHT22;54366;51.980;5.856;2022-12-29T07:22:39;10.90;80.10
67529;DHT22;54366;51.980;5.856;2022-12-29T07:25:05;10.90;80.40
67529;DHT22;54366;51.980;5.856;2022-12-29T07:27:31;10.90;79.80
67529;DHT22;54366;51.980;5.856;2022-12-29T07:29:58;11.00;80.00
67529;DHT22;54366;51.980;5.856;2022-12-29T07:32:24;10.90;80.30
67529;DHT22;54366;51.980;5.856;2022-12-29T07:34:50;11.00;79.40
67529;DHT22;54366;51.980;5.856;2022-12-29T07:37:17;11.00;79.80
67529;DHT22;54366;51.980;5.856;2022-12-29T07:39:43;10.90;79.10
67529;DHT22;54366;51.980;5.856;2022-12-29T07:42:09;10.90;79.30
67529;DHT22;54366;51.980;5.856;2022-12-29T07:44:44;11.00;79.20
67529;DHT22;54366;51.980;5.856;2022-12-29T07:47:32;11.00;79.10
67529;DHT22;54366;51.980;5.856;2022-12-29T07:49:59;11.00;79.00
67529;DHT22;54366;51.980;5.856;2022-12-29T07:52:25;11.00;79.30
67529;DHT22;54366;51.980;5.856;2022-12-29T07:54:58;11.00;79.20
67529;DHT22;54366;51.980;5.856;2022-12-29T07:57:24;11.00;79.00
67529;DHT22;54366;51.980;5.856;2022-12-29T07:59:50;11.00;79.20
67529;DHT22;54366;51.980;5.856;2022-12-29T08:02:17;11.00;78.80
67529;DHT22;54366;51.980;5.856;2022-12-29T08:04:43;11.00;78.50
67529;DHT22;54366;51.980;5.856;2022-12-29T08:07:09;11.00;78.00
67529;DHT22;54366;51.980;5.856;2022-12-29T08:09:36;11.10;78.40
67529;DHT22;54366;51.980;5.856;2022-12-29T08:12:02;11.10;77.90
67529;DHT22;54366;51.980;5.856;2022-12-29T08:14:28;11.00;78.10
67529;DHT22;54366;51.980;5.856;2022-12-29T08:16:55;11.00;77.30
67529;DHT22;54366;51.980;5.856;2022-12-29T08:19:21;11.00;77.40
67529;DHT22;54366;51.980;5.856;2022-12-29T08:21:47;11.00;77.60
67529;DHT22;54366;51.980;5.856;2022-12-29T08:24:14;11.00;77.50
67529;DHT22;54366;51.980;5.856;2022-12-29T08:26:40;11.00;77.40
67529;DHT22;54366;51.980;5.856;2022-12-29T08:29:07;11.00;77.20
67529;DHT22;54366;51.980;5.856;2022-12-29T08:31:34;11.00;77.80
67529;DHT22;54366;51.980;5.856;2022-12-29T08:34:00;11.00;76.50
67529;DHT22;54366;51.980;5.856;2022-12-29T08:36:29;11.10;76.80
67529;DHT22;54366;51.980;5.856;2022-12-29T08:38:56;11.10;76.90
67529;DHT22;54366;51.980;5.856;2022-12-29T08:41:23;11.00;76.80
67529;DHT22;54366;51.980;5.856;2022-12-29T08:43:49;11.10;76.90
67529;DHT22;54366;51.980;5.856;2022-12-29T08:46:16;11.10;76.70
67529;DHT22;54366;51.980;5.856;2022-12-29T08:48:43;11.10;76.40
67529;DHT22;54366;51.980;5.856;2022-12-29T08:51:09;11.00;76.40
67529;DHT22;54366;51.980;5.856;2022-12-29T08:53:35;11.10;76.30
67529;DHT22;54366;51.980;5.856;2022-12-29T08:56:02;11.10;76.20
67529;DHT22;54366;51.980;5.856;2022-12-29T08:58:29;11.10;76.90
67529;DHT22;54366;51.980;5.856;2022-12-29T09:00:57;11.10;76.60
67529;DHT22;54366;51.980;5.856;2022-12-29T09:03:24;11.20;76.60
67529;DHT22;54366;51.980;5.856;2022-12-29T09:05:52;11.10;76.80
67529;DHT22;54366;51.980;5.856;2022-12-29T09:08:19;11.20;76.80
67529;DHT22;54366;51.980;5.856;2022-12-29T09:10:46;11.10;76.70
67529;DHT22;54366;51.980;5.856;2022-12-29T09:13:13;11.10;76.60
67529;DHT22;54366;51.980;5.856;2022-12-29T09:15:40;11.10;77.00
67529;DHT22;54366;51.980;5.856;2022-12-29T09:18:07;11.10;77.30
67529;DHT22;54366;51.980;5.856;2022-12-29T09:20:34;11.10;77.70
67529;DHT22;54366;51.980;5.856;2022-12-29T09:23:01;11.00;77.80
67529;DHT22;54366;51.980;5.856;2022-12-29T09:25:27;11.00;78.00
67529;DHT22;54366;51.980;5.856;2022-12-29T09:27:54;11.00;78.00
67529;DHT22;54366;51.980;5.856;2022-12-29T09:30:22;11.00;78.20
67529;DHT22;54366;51.980;5.856;2022-12-29T09:32:49;11.00;78.00
67529;DHT22;54366;51.980;5.856;2022-12-29T09:35:16;10.90;77.60
67529;DHT22;54366;51.980;5.856;2022-12-29T09:37:43;10.90;78.00
67529;DHT22;54366;51.980;5.856;2022-12-29T09:40:23;10.90;77.90
67529;DHT22;54366;51.980;5.856;2022-12-29T09:43:12;11.00;77.80
67529;DHT22;54366;51.980;5.856;2022-12-29T09:49:15;11.00;78.30
67529;DHT22;54366;51.980;5.856;2022-12-29T09:51:46;11.00;78.70
67529;DHT22;54366;51.980;5.856;2022-12-29T09:54:46;11.00;78.80
67529;DHT22;54366;51.980;5.856;2022-12-29T09:57:20;11.00;78.80
67529;DHT22;54366;51.980;5.856;2022-12-29T09:59:50;11.00;79.00
67529;DHT22;54366;51.980;5.856;2022-12-29T10:02:33;10.90;79.00
67529;DHT22;54366;51.980;5.856;2022-12-29T10:05:03;10.90;79.40
67529;DHT22;54366;51.980;5.856;2022-12-29T10:08:05;10.90;79.80
67529;DHT22;54366;51.980;5.856;2022-12-29T10:10:54;10.90;80.20
67529;DHT22;54366;51.980;5.856;2022-12-29T10:14:02;10.80;80.50
67529;DHT22;54366;51.980;5.856;2022-12-29T10:16:55;10.80;80.90
67529;DHT22;54366;51.980;5.856;2022-12-29T10:19:53;10.80;81.30
67529;DHT22;54366;51.980;5.856;2022-12-29T10:23:06;10.80;81.70
67529;DHT22;54366;51.980;5.856;2022-12-29T10:25:38;10.70;81.90
67529;DHT22;54366;51.980;5.856;2022-12-29T10:28:35;10.70;82.50
67529;DHT22;54366;51.980;5.856;2022-12-29T10:33:57;10.70;82.90
67529;DHT22;54366;51.980;5.856;2022-12-29T10:36:35;10.60;83.10
67529;DHT22;54366;51.980;5.856;2022-12-29T10:39:20;10.60;83.40
67529;DHT22;54366;51.980;5.856;2022-12-29T10:42:27;10.60;83.50
67529;DHT22;54366;51.980;5.856;2022-12-29T10:44:55;10.60;83.50
67529;DHT22;54366;51.980;5.856;2022-12-29T10:47:28;10.60;83.50
67529;DHT22;54366;51.980;5.856;2022-12-29T10:49:56;10.60;83.60
67529;DHT22;54366;51.980;5.856;2022-12-29T10:52:25;10.70;83.80
67529;DHT22;54366;51.980;5.856;2022-12-29T10:55:36;10.60;84.30
67529;DHT22;54366;51.980;5.856;2022-12-29T10:58:05;10.60;84.00
67529;DHT22;54366;51.980;5.856;2022-12-29T11:00:33;10.60;84.30
67529;DHT22;54366;51.980;5.856;2022-12-29T11:03:26;10.70;84.40
67529;DHT22;54366;51.980;5.856;2022-12-29T11:06:23;10.60;84.50
67529;DHT22;54366;51.980;5.856;2022-12-29T11:09:12;10.60;84.40
67529;DHT22;54366;51.980;5.856;2022-12-29T11:11:39;10.60;84.40
67529;DHT22;54366;51.980;5.856;2022-12-29T11:14:16;10.60;84.40
67529;DHT22;54366;51.980;5.856;2022-12-29T11:16:44;10.60;84.40
67529;DHT22;54366;51.980;5.856;2022-12-29T11:19:22;10.70;84.50
67529;DHT22;54366;51.980;5.856;2022-12-29T11:21:49;10.70;84.60
67529;DHT22;54366;51.980;5.856;2022-12-29T11:24:25;10.70;84.40
67529;DHT22;54366;51.980;5.856;2022-12-29T11:26:54;10.80;84.30
67529;DHT22;54366;51.980;5.856;2022-12-29T11:29:25;10.80;84.00
67529;DHT22;54366;51.980;5.856;2022-12-29T11:31:57;10.80;83.70
67529;DHT22;54366;51.980;5.856;2022-12-29T11:34:35;10.90;83.80
67529;DHT22;54366;51.980;5.856;2022-12-29T11:37:09;10.90;83.80
67529;DHT22;54366;51.980;5.856;2022-12-29T11:40:18;10.90;84.00
67529;DHT22;54366;51.980;5.856;2022-12-29T11:43:17;10.90;84.00
67529;DHT22;54366;51.980;5.856;2022-12-29T11:45:47;11.00;84.10
67529;DHT22;54366;51.980;5.856;2022-12-29T11:48:18;11.00;84.20
67529;DHT22;54366;51.980;5.856;2022-12-29T11:50:51;11.10;83.30
67529;DHT22;54366;51.980;5.856;2022-12-29T11:53:43;11.00;83.30
67529;DHT22;54366;51.980;5.856;2022-12-29T11:56:16;11.10;83.40
67529;DHT22;54366;51.980;5.856;2022-12-29T11:58:43;11.10;83.50
67529;DHT22;54366;51.980;5.856;2022-12-29T12:01:36;11.10;83.00
67529;DHT22;54366;51.980;5.856;2022-12-29T12:04:16;11.10;82.70
67529;DHT22;54366;51.980;5.856;2022-12-29T12:07:11;11.10;82.70
67529;DHT22;54366;51.980;5.856;2022-12-29T12:09:43;11.10;82.60
67529;DHT22;54366;51.980;5.856;2022-12-29T12:12:28;11.10;82.60
67529;DHT22;54366;51.980;5.856;2022-12-29T12:14:57;11.10;82.70
67529;DHT22;54366;51.980;5.856;2022-12-29T12:19:30;11.10;82.50
67529;DHT22;54366;51.980;5.856;2022-12-29T12:21:27;11.10;81.80
67529;DHT22;54366;51.980;5.856;2022-12-29T12:24:16;11.10;81.50
67529;DHT22;54366;51.980;5.856;2022-12-29T12:27:11;11.10;81.10
67529;DHT22;54366;51.980;5.856;2022-12-29T12:34:54;11.20;80.70
67529;DHT22;54366;51.980;5.856;2022-12-29T12:41:09;11.30;80.60
67529;DHT22;54366;51.980;5.856;2022-12-29T12:47:10;11.30;80.10
67529;DHT22;54366;51.980;5.856;2022-12-29T12:50:08;11.40;80.40
67529;DHT22;54366;51.980;5.856;2022-12-29T12:53:19;11.50;80.50
67529;DHT22;54366;51.980;5.856;2022-12-29T12:56:22;11.60;80.20
67529;DHT22;54366;51.980;5.856;2022-12-29T12:59:03;11.60;79.80
67529;DHT22;54366;51.980;5.856;2022-12-29T13:01:46;11.60;79.40
67529;DHT22;54366;51.980;5.856;2022-12-29T13:04:38;11.60;79.20
67529;DHT22;54366;51.980;5.856;2022-12-29T13:07:40;11.60;79.10
67529;DHT22;54366;51.980;5.856;2022-12-29T13:10:22;11.50;79.30
67529;DHT22;54366;51.980;5.856;2022-12-29T13:13:32;11.50;79.00
67529;DHT22;54366;51.980;5.856;2022-12-29T13:16:37;11.50;79.30
67529;DHT22;54366;51.980;5.856;2022-12-29T13:20:04;11.40;79.40
67529;DHT22;54366;51.980;5.856;2022-12-29T13:22:42;11.40;79.40
67529;DHT22;54366;51.980;5.856;2022-12-29T13:25:42;11.40;79.70
67529;DHT22;54366;51.980;5.856;2022-12-29T13:28:37;11.40;79.40
67529;DHT22;54366;51.980;5.856;2022-12-29T13:34:39;11.40;79.50
67529;DHT22;54366;51.980;5.856;2022-12-29T13:37:13;11.30;79.70
67529;DHT22;54366;51.980;5.856;2022-12-29T13:39:46;11.30;80.00
67529;DHT22;54366;51.980;5.856;2022-12-29T13:42:14;11.30;80.00
67529;DHT22;54366;51.980;5.856;2022-12-29T13:44:50;11.30;80.10
67529;DHT22;54366;51.980;5.856;2022-12-29T13:47:37;11.20;79.90
67529;DHT22;54366;51.980;5.856;2022-12-29T13:50:15;11.20;79.50
67529;DHT22;54366;51.980;5.856;2022-12-29T13:56:15;11.20;79.40
67529;DHT22;54366;51.980;5.856;2022-12-29T13:58:53;11.30;79.20
67529;DHT22;54366;51.980;5.856;2022-12-29T14:01:37;11.20;79.20
67529;DHT22;54366;51.980;5.856;2022-12-29T14:04:14;11.20;78.90
67529;DHT22;54366;51.980;5.856;2022-12-29T14:06:41;11.30;79.00
67529;DHT22;54366;51.980;5.856;2022-12-29T14:12:38;11.20;79.10
67529;DHT22;54366;51.980;5.856;2022-12-29T14:18:10;11.20;79.30
67529;DHT22;54366;51.980;5.856;2022-12-29T14:20:40;11.20;79.40
67529;DHT22;54366;51.980;5.856;2022-12-29T14:23:26;11.20;78.70
67529;DHT22;54366;51.980;5.856;2022-12-29T14:26:14;11.10;78.40
67529;DHT22;54366;51.980;5.856;2022-12-29T14:28:44;11.10;77.50
67529;DHT22;54366;51.980;5.856;2022-12-29T14:31:39;11.00;77.30
67529;DHT22;54366;51.980;5.856;2022-12-29T14:34:28;11.00;77.30
67529;DHT22;54366;51.980;5.856;2022-12-29T14:37:02;11.00;77.60
67529;DHT22;54366;51.980;5.856;2022-12-29T14:39:43;10.90;78.00
67529;DHT22;54366;51.980;5.856;2022-12-29T14:42:15;10.90;78.50
67529;DHT22;54366;51.980;5.856;2022-12-29T14:47:51;10.80;79.50
67529;DHT22;54366;51.980;5.856;2022-12-29T14:54:23;10.70;80.20
67529;DHT22;54366;51.980;5.856;2022-12-29T14:56:26;10.70;80.40
67529;DHT22;54366;51.980;5.856;2022-12-29T14:59:01;10.70;80.70
67529;DHT22;54366;51.980;5.856;2022-12-29T15:01:42;10.70;80.80
67529;DHT22;54366;51.980;5.856;2022-12-29T15:04:41;10.60;81.00
67529;DHT22;54366;51.980;5.856;2022-12-29T15:07:09;10.60;81.10
67529;DHT22;54366;51.980;5.856;2022-12-29T15:09:43;10.60;81.30
67529;DHT22;54366;51.980;5.856;2022-12-29T15:12:37;10.50;81.50
67529;DHT22;54366;51.980;5.856;2022-12-29T15:15:23;10.50;81.70
67529;DHT22;54366;51.980;5.856;2022-12-29T15:17:51;10.50;82.00
67529;DHT22;54366;51.980;5.856;2022-12-29T15:20:29;10.40;82.20
67529;DHT22;54366;51.980;5.856;2022-12-29T15:23:18;10.40;82.70
67529;DHT22;54366;51.980;5.856;2022-12-29T15:25:53;10.30;83.10
67529;DHT22;54366;51.980;5.856;2022-12-29T15:28:21;10.30;83.50
67529;DHT22;54366;51.980;5.856;2022-12-29T15:30:55;10.20;83.60
67529;DHT22;54366;51.980;5.856;2022-12-29T15:33:24;10.30;83.80
67529;DHT22;54366;51.980;5.856;2022-12-29T15:35:54;10.20;83.70
67529;DHT22;54366;51.980;5.856;2022-12-29T15:38:26;10.20;83.90
67529;DHT22;54366;51.980;5.856;2022-12-29T15:40:55;10.20;83.90
67529;DHT22;54366;51.980;5.856;2022-12-29T15:46:31;10.20;83.70
67529;DHT22;54366;51.980;5.856;2022-12-29T15:48:57;10.20;83.60
67529;DHT22;54366;51.980;5.856;2022-12-29T15:51:36;10.20;83.60
67529;DHT22;54366;51.980;5.856;2022-12-29T15:54:03;10.20;83.50
67529;DHT22;54366;51.980;5.856;2022-12-29T15:56:31;10.20;83.40
67529;DHT22;54366;51.980;5.856;2022-12-29T15:58:59;10.20;83.20
67529;DHT22;54366;51.980;5.856;2022-12-29T16:01:33;10.20;83.00
67529;DHT22;54366;51.980;5.856;2022-12-29T16:04:09;10.20;82.70
67529;DHT22;54366;51.980;5.856;2022-12-29T16:06:38;10.20;82.80
67529;DHT22;54366;51.980;5.856;2022-12-29T16:09:31;10.20;82.90
67529;DHT22;54366;51.980;5.856;2022-12-29T16:12:06;10.20;83.00
67529;DHT22;54366;51.980;5.856;2022-12-29T16:14:43;10.20;82.80
67529;DHT22;54366;51.980;5.856;2022-12-29T16:17:16;10.20;82.70
67529;DHT22;54366;51.980;5.856;2022-12-29T16:19:59;10.20;82.70
67529;DHT22;54366;51.980;5.856;2022-12-29T16:22:31;10.30;82.70
67529;DHT22;54366;51.980;5.856;2022-12-29T16:25:06;10.20;82.50
67529;DHT22;54366;51.980;5.856;2022-12-29T16:27:40;10.20;82.30
67529;DHT22;54366;51.980;5.856;2022-12-29T16:30:20;10.20;82.00
67529;DHT22;54366;51.980;5.856;2022-12-29T16:32:49;10.20;82.20
67529;DHT22;54366;51.980;5.856;2022-12-29T16:35:44;10.20;82.20
67529;DHT22;54366;51.980;5.856;2022-12-29T16:41:01;10.20;82.30
67529;DHT22;54366;51.980;5.856;2022-12-29T16:43:32;10.20;82.30
67529;DHT22;54366;51.980;5.856;2022-12-29T16:48:56;10.10;81.90
67529;DHT22;54366;51.980;5.856;2022-12-29T16:51:35;10.10;82.10
67529;DHT22;54366;51.980;5.856;2022-12-29T16:54:02;10.00;82.00
67529;DHT22;54366;51.980;5.856;2022-12-29T16:56:32;10.00;82.50
67529;DHT22;54366;51.980;5.856;2022-12-29T16:59:32;10.00;81.90
67529;DHT22;54366;51.980;5.856;2022-12-29T17:02:01;10.00;82.10
67529;DHT22;54366;51.980;5.856;2022-12-29T17:04:31;10.00;81.40
67529;DHT22;54366;51.980;5.856;2022-12-29T17:06:57;10.00;81.50
67529;DHT22;54366;51.980;5.856;2022-12-29T17:09:25;10.00;81.50
67529;DHT22;54366;51.980;5.856;2022-12-29T17:11:58;10.00;81.20
67529;DHT22;54366;51.980;5.856;2022-12-29T17:15:04;10.00;80.50
67529;DHT22;54366;51.980;5.856;2022-12-29T17:17:40;9.90;80.50
67529;DHT22;54366;51.980;5.856;2022-12-29T17:20:22;9.90;80.10
67529;DHT22;54366;51.980;5.856;2022-12-29T17:22:49;9.90;80.00
67529;DHT22;54366;51.980;5.856;2022-12-29T17:25:19;9.90;80.00
67529;DHT22;54366;51.980;5.856;2022-12-29T17:27:51;9.90;79.90
67529;DHT22;54366;51.980;5.856;2022-12-29T17:30:24;9.80;80.00